Time;durP1;ratioP1;P1;durP2;ratioP2;P2;SDS_P1;SDS_P2;PMS_P1;PMS_P2;Temp;Humidity;BMP_temperature;BMP_pressure;BME280_temperature;BME280_humidity;BME280_pressure;Samples;Min_cycle;Max_cycle;Signal;HPM_P1;HPM_P2
2021/05/18 00:02:40;;;;;;;40.93;16.07;;;;;;;10.09;86.88;97658.09;2180637;82;20923;-79
2021/05/18 00:05:41;;;;;;;5.60;5.10;;;;;;;10.08;86.66;97661.56;2180555;81;20914;-80
2021/05/18 00:12:02;;;;;;;4.80;4.40;;;;;;;10.08;86.84;97665.05;2179526;82;20926;-78
2021/05/18 00:15:03;;;;;;;4.57;4.17;;;;;;;10.08;86.80;97666.34;2179433;82;21018;-78
2021/05/18 00:18:04;;;;;;;4.37;4.00;;;;;;;10.08;86.69;97657.66;2173214;81;20991;-80
2021/05/18 00:21:05;;;;;;;5.07;4.00;;;;;;;10.07;86.71;97659.40;2162039;82;21204;-79
2021/05/18 00:24:06;;;;;;;4.53;3.60;;;;;;;10.08;86.77;97655.05;2161915;82;20935;-79
2021/05/18 00:27:07;;;;;;;4.07;3.77;;;;;;;10.07;86.69;97658.53;2162301;82;20899;-80
2021/05/18 00:30:08;;;;;;;3.60;3.30;;;;;;;10.06;86.53;97660.71;2161847;82;20979;-80
2021/05/18 00:33:09;;;;;;;4.10;3.70;;;;;;;10.05;86.58;97660.28;2162005;82;21419;-80
2021/05/18 00:36:10;;;;;;;4.50;4.10;;;;;;;10.06;86.29;97661.58;2162013;82;20943;-79
2021/05/18 00:39:11;;;;;;;4.97;4.17;;;;;;;10.06;86.41;97661.58;2163052;82;21312;-81
2021/05/18 00:42:11;;;;;;;4.17;3.67;;;;;;;10.12;86.85;97656.33;2162323;82;21001;-79
2021/05/18 00:45:12;;;;;;;4.83;3.93;;;;;;;10.11;86.42;97658.51;2162898;82;20907;-79
2021/05/18 00:48:13;;;;;;;4.03;3.70;;;;;;;10.07;86.44;97669.83;2162438;82;21021;-79
2021/05/18 00:51:14;;;;;;;3.97;3.67;;;;;;;10.05;86.22;97666.36;2161878;82;21331;-80
2021/05/18 00:54:22;;;;;;;4.53;4.17;;;;;;;10.04;86.24;97668.54;2162503;82;20966;-79
2021/05/18 01:00:37;;;;;;;4.40;4.10;;;;;;;10.04;86.08;97677.67;2162343;82;21316;-79
2021/05/18 01:03:38;;;;;;;4.03;3.63;;;;;;;10.05;86.23;97679.84;2162170;82;20946;-79
2021/05/18 01:06:40;;;;;;;4.07;3.70;;;;;;;10.06;86.25;97688.95;2162395;82;21018;-79
2021/05/18 01:09:41;;;;;;;4.23;3.80;;;;;;;10.07;86.30;97687.22;2162312;82;21427;-80
2021/05/18 01:12:42;;;;;;;4.07;3.77;;;;;;;10.05;86.17;97679.40;2162445;82;20929;-79
2021/05/18 01:15:43;;;;;;;4.40;4.00;;;;;;;10.04;86.21;97689.40;2162523;82;20978;-80
2021/05/18 01:18:44;;;;;;;5.20;4.00;;;;;;;10.05;86.27;97690.27;2162483;81;21010;-80
2021/05/18 01:21:45;;;;;;;4.03;3.73;;;;;;;10.04;86.15;97685.48;2162731;82;21003;-79
2021/05/18 01:24:46;;;;;;;4.00;3.70;;;;;;;10.03;86.37;97682.89;2163365;82;21002;-80
2021/05/18 01:27:47;;;;;;;4.30;3.90;;;;;;;10.01;86.59;97689.84;2163522;82;20895;-80
2021/05/18 01:30:49;;;;;;;3.40;3.10;;;;;;;9.95;86.99;97675.09;2162841;82;20943;-80
2021/05/18 01:33:50;;;;;;;3.40;2.83;;;;;;;9.90;87.10;97683.37;2162277;82;21019;-80
2021/05/18 01:36:52;;;;;;;3.90;3.60;;;;;;;9.86;87.12;97673.40;2163682;82;20923;-81
2021/05/18 01:43:10;;;;;;;3.47;3.17;;;;;;;9.82;87.39;97672.98;2142447;82;20911;-80
2021/05/18 01:46:11;;;;;;;3.47;3.10;;;;;;;9.81;87.36;97680.80;2163289;82;21050;-80
2021/05/18 01:49:12;;;;;;;4.07;3.07;;;;;;;9.82;87.36;97683.41;2163031;82;21038;-81
2021/05/18 01:52:13;;;;;;;3.10;2.80;;;;;;;9.81;87.21;97683.41;2162725;82;20951;-79
2021/05/18 01:55:25;;;;;;;2.93;2.63;;;;;;;9.83;87.19;97686.44;2162966;82;20991;-80
2021/05/18 01:58:20;;;;;;;2.77;2.57;;;;;;;9.85;87.19;97690.34;2161583;82;20982;-80
2021/05/18 02:01:21;;;;;;;2.80;2.60;;;;;;;9.89;87.01;97693.38;2163147;82;20911;-80
2021/05/18 02:04:22;;;;;;;3.87;2.80;;;;;;;9.91;87.04;97699.45;2163627;82;21023;-80
2021/05/18 02:07:23;;;;;;;2.80;2.60;;;;;;;9.91;86.94;97695.53;2162453;82;20903;-81
2021/05/18 02:10:24;;;;;;;2.53;2.40;;;;;;;9.91;87.05;97704.66;2163268;82;21065;-80
2021/05/18 02:13:25;;;;;;;3.20;2.80;;;;;;;9.90;87.14;97709.00;2164036;82;20907;-81
2021/05/18 02:16:31;;;;;;;2.83;2.50;;;;;;;9.89;87.16;97716.83;2164458;82;21041;-81
2021/05/18 02:19:44;;;;;;;4.50;2.83;;;;;;;9.88;86.94;97709.45;2174703;81;21434;-82
2021/05/18 02:25:56;;;;;;;2.43;2.30;;;;;;;9.92;86.98;97722.47;2181367;82;21002;-80
2021/05/18 02:28:58;;;;;;;2.57;2.37;;;;;;;9.91;86.89;97720.30;2180437;82;20970;-78
2021/05/18 02:31:59;;;;;;;4.20;2.27;;;;;;;9.89;86.84;97724.66;2180522;82;20914;-80
2021/05/18 02:35:00;;;;;;;3.03;2.60;;;;;;;9.88;87.10;97716.40;2181649;82;21005;-80
2021/05/18 02:38:01;;;;;;;3.27;2.40;;;;;;;9.88;86.98;97715.09;2181289;82;20969;-82
2021/05/18 02:41:02;;;;;;;2.30;2.10;;;;;;;9.86;87.11;97719.02;2180347;82;20974;-81
2021/05/18 02:44:08;;;;;;;1.90;1.80;;;;;;;9.86;87.05;97716.84;2181744;82;20950;-81
2021/05/18 02:50:24;;;;;;;2.33;2.23;;;;;;;9.84;86.91;97712.94;2181534;82;21006;-80
2021/05/18 02:53:26;;;;;;;3.30;2.30;;;;;;;9.84;87.30;97710.77;2181144;82;20970;-81
2021/05/18 02:56:31;;;;;;;2.43;2.23;;;;;;;9.99;89.49;97714.63;2179914;82;20946;-80
2021/05/18 02:59:29;;;;;;;3.13;2.20;;;;;;;10.42;88.07;97719.70;2179032;82;20989;-79
2021/05/18 03:02:30;;;;;;;2.10;2.00;;;;;;;10.31;86.12;97718.42;2180636;82;20923;-81
2021/05/18 03:05:31;;;;;;;3.77;1.77;;;;;;;10.14;86.23;97721.08;2180885;82;20934;-80
2021/05/18 03:08:37;;;;;;;2.67;1.97;;;;;;;10.07;86.20;97725.88;2181258;82;21040;-80
2021/05/18 03:11:35;;;;;;;2.50;2.33;;;;;;;10.03;86.25;97725.47;2180635;82;20997;-81
2021/05/18 03:14:36;;;;;;;2.50;2.20;;;;;;;10.01;86.70;97732.42;2181222;82;20927;-80
2021/05/18 03:17:37;;;;;;;2.63;2.30;;;;;;;9.98;86.55;97731.57;2180159;82;20978;-79
2021/05/18 03:20:38;;;;;;;2.27;2.07;;;;;;;9.94;86.88;97733.76;2180416;81;21030;-81
2021/05/18 03:23:39;;;;;;;2.60;2.40;;;;;;;9.90;86.85;97732.47;2181316;82;21000;-80
2021/05/18 03:26:47;;;;;;;3.33;3.03;;;;;;;9.91;87.16;97737.24;2181002;82;20926;-80
2021/05/18 03:29:50;;;;;;;3.50;3.20;;;;;;;9.90;86.89;97739.42;2180540;82;20990;-80
2021/05/18 03:36:10;;;;;;;2.77;2.63;;;;;;;9.91;87.00;97750.28;2180772;82;20993;-79
2021/05/18 03:39:11;;;;;;;3.43;2.97;;;;;;;9.92;87.05;97746.80;2180753;82;21057;-80
2021/05/18 03:42:18;;;;;;;3.93;2.90;;;;;;;9.92;87.12;97752.01;2180837;82;20993;-81
2021/05/18 03:45:23;;;;;;;3.20;3.00;;;;;;;9.93;87.08;97756.35;2180029;82;21401;-81
2021/05/18 03:54:59;;;;;;;3.07;2.83;;;;;;;9.93;87.06;97755.48;2181111;82;20981;-80
2021/05/18 04:04:32;;;;;;;3.30;3.00;;;;;;;9.94;87.01;97758.09;2180635;82;20971;-80
2021/05/18 04:11:19;;;;;;;3.50;3.30;;;;;;;9.91;87.15;97765.91;2175554;82;21007;-79
2021/05/18 04:17:16;;;;;;;3.70;2.80;;;;;;;9.90;87.05;97757.23;2180227;82;20950;-81
2021/05/18 04:40:21;;;;;;;2.63;2.43;;;;;;;9.86;86.43;97783.30;2180002;82;21175;-79
2021/05/18 04:43:27;;;;;;;2.30;2.10;;;;;;;9.86;86.34;97788.52;2175769;82;21025;-80
2021/05/18 04:52:34;;;;;;;2.83;2.50;;;;;;;9.89;85.94;97805.45;2152583;82;21057;-80
2021/05/18 04:59:01;;;;;;;3.00;1.80;;;;;;;9.88;85.98;97805.02;2180301;81;21022;-80
2021/05/18 05:08:29;;;;;;;3.20;2.90;;;;;;;9.87;86.04;97805.45;2179661;82;21013;-79
2021/05/18 05:14:31;;;;;;;6.97;4.20;;;;;;;9.89;86.19;97805.45;2175662;82;21071;-81
2021/05/18 05:17:33;;;;;;;4.23;3.83;;;;;;;9.88;86.32;97805.89;2179729;82;20998;-80
2021/05/18 05:20:34;;;;;;;4.33;3.93;;;;;;;9.90;86.44;97808.49;2167056;81;21374;-80
2021/05/18 05:23:35;;;;;;;5.60;3.60;;;;;;;9.90;86.44;97805.45;2162198;82;20939;-82
2021/05/18 05:26:36;;;;;;;5.43;3.70;;;;;;;9.90;86.47;97814.57;2162205;82;21320;-80
2021/05/18 05:29:37;;;;;;;6.13;3.93;;;;;;;9.92;86.67;97814.57;2162323;82;21026;-80
2021/05/18 05:32:38;;;;;;;4.87;4.23;;;;;;;9.91;86.54;97819.35;2162125;82;21363;-80
2021/05/18 05:35:39;;;;;;;3.87;3.53;;;;;;;9.93;86.92;97805.87;2162573;82;21311;-81
2021/05/18 05:38:39;;;;;;;4.50;4.10;;;;;;;9.96;87.05;97811.52;2162534;82;21022;-81
2021/05/18 05:41:40;;;;;;;4.17;3.77;;;;;;;10.00;87.08;97805.43;2162282;82;21014;-81
2021/05/18 05:44:42;;;;;;;6.57;3.90;;;;;;;10.05;87.05;97799.33;2162631;82;20954;-80
2021/05/18 05:47:43;;;;;;;4.83;4.07;;;;;;;10.10;86.90;97794.97;2162476;82;20950;-81
2021/05/18 05:50:44;;;;;;;6.17;4.07;;;;;;;10.19;86.70;97804.50;2162834;82;20998;-80
2021/05/18 05:53:45;;;;;;;3.77;3.43;;;;;;;10.24;86.67;97808.44;2162365;82;20998;-80
2021/05/18 05:56:46;;;;;;;4.30;3.90;;;;;;;10.25;86.40;97813.64;2162696;82;20984;-80
2021/05/18 05:59:48;;;;;;;3.60;3.30;;;;;;;10.29;86.38;97823.63;2162233;82;20959;-79
2021/05/18 06:02:49;;;;;;;3.63;3.33;;;;;;;10.32;86.24;97832.31;2162559;82;21026;-82
2021/05/18 06:05:50;;;;;;;4.40;4.00;;;;;;;10.33;86.15;97838.40;2162552;82;21050;-80
2021/05/18 06:08:51;;;;;;;4.87;4.37;;;;;;;10.32;86.15;97845.80;2161803;82;21071;-80
2021/05/18 06:11:59;;;;;;;7.27;5.13;;;;;;;10.33;86.34;97848.83;2162099;82;20947;-82
2021/05/18 06:47:35;;;;;;;5.53;5.03;;;;;;;10.53;85.96;97892.28;2173143;82;20950;-82
2021/05/18 06:50:37;;;;;;;4.37;4.07;;;;;;;10.65;85.64;97891.38;2173056;82;21061;-82
2021/05/18 06:53:37;;;;;;;4.60;4.20;;;;;;;10.73;85.33;97891.34;2173042;82;20974;-82
2021/05/18 06:56:40;;;;;;;4.13;3.83;;;;;;;10.75;85.25;97891.77;2173193;82;20958;-83
2021/05/18 07:03:02;;;;;;;3.55;3.25;;;;;;;10.94;84.96;97893.86;2172895;82;21010;-82
2021/05/18 07:06:22;;;;;;;4.50;4.10;;;;;;;10.92;84.74;97898.22;2172658;82;20989;-82
2021/05/18 07:09:12;;;;;;;4.50;4.10;;;;;;;10.87;84.98;97896.06;2170375;82;20946;-81
2021/05/18 07:12:13;;;;;;;6.17;5.37;;;;;;;10.83;85.02;97908.27;2172291;82;21457;-82
2021/05/18 07:15:14;;;;;;;8.07;5.60;;;;;;;10.77;85.10;97905.68;2172395;82;21315;-80
2021/05/18 07:18:15;;;;;;;5.37;4.83;;;;;;;10.74;85.31;97908.30;2172798;82;21429;-80
2021/05/18 07:21:16;;;;;;;4.92;4.53;;;;;;;10.70;85.45;97912.23;2178360;81;21066;-82
2021/05/18 07:24:22;;;;;;;4.20;3.80;;;;;;;10.65;85.70;97910.95;2180049;82;21021;-81
2021/05/18 07:27:20;;;;;;;4.83;4.53;;;;;;;10.62;85.43;97913.56;2179745;82;21445;-81
2021/05/18 07:30:21;;;;;;;4.57;4.17;;;;;;;10.60;85.76;97911.83;2180226;82;20949;-81
2021/05/18 07:33:22;;;;;;;4.50;3.80;;;;;;;10.58;85.80;97909.23;2180338;82;21286;-81
2021/05/18 07:36:24;;;;;;;3.90;3.60;;;;;;;10.62;85.69;97916.61;2179635;82;21423;-79
2021/05/18 07:39:25;;;;;;;6.90;6.23;;;;;;;10.58;85.57;97912.27;2179449;82;21017;-81
2021/05/18 07:42:26;;;;;;;5.50;5.03;;;;;;;10.55;85.79;97917.06;2179400;82;21413;-82
2021/05/18 07:45:28;;;;;;;4.93;4.53;;;;;;;10.55;85.50;97916.20;2180881;82;21002;-80
2021/05/18 07:48:41;;;;;;;5.40;4.90;;;;;;;10.57;85.68;97915.75;2180758;82;21073;-82
2021/05/18 08:08:06;;;;;;;4.20;3.67;;;;;;;10.56;85.03;97940.98;2180046;82;20977;-82
2021/05/18 08:11:07;;;;;;;3.90;3.60;;;;;;;10.63;85.11;97948.36;2179717;82;21025;-82
2021/05/18 08:14:08;;;;;;;3.37;3.17;;;;;;;10.62;84.69;97944.88;2179406;82;21002;-82
2021/05/18 08:17:23;;;;;;;7.63;5.00;;;;;;;10.68;84.82;97941.38;2180029;82;20954;-81
2021/05/18 09:33:10;;;;;;;3.85;3.08;;;;;;;11.52;81.83;97976.30;2179985;82;21046;-81
2021/05/18 09:50:10;;;;;;;3.98;3.60;;;;;;;11.53;81.97;97974.13;2179007;82;20938;-80
2021/05/18 10:22:27;;;;;;;6.67;2.77;;;;;;;12.35;80.01;97997.13;2145403;82;21001;-80
2021/05/18 10:26:03;;;;;;;5.62;3.30;;;;;;;12.48;79.98;98000.05;2167811;82;20998;-80
2021/05/18 10:37:17;;;;;;;4.75;4.10;;;;;;;12.47;78.85;98005.30;2172550;82;21315;-80
2021/05/18 10:40:18;;;;;;;4.30;4.00;;;;;;;12.48;78.91;98001.36;2172327;82;21017;-79
2021/05/18 10:43:20;;;;;;;5.00;4.42;;;;;;;12.41;79.20;98008.41;2172625;82;20946;-80
2021/05/18 10:46:26;;;;;;;5.17;4.70;;;;;;;12.31;79.61;98015.03;2172091;82;20926;-81
2021/05/18 10:49:26;;;;;;;6.58;5.97;;;;;;;12.06;79.91;98007.34;2172347;82;20942;-82
2021/05/18 10:52:27;;;;;;;7.17;6.62;;;;;;;11.84;80.83;98020.14;2172118;82;21041;-80
2021/05/18 10:55:28;;;;;;;8.63;7.58;;;;;;;11.68;81.79;98020.64;2172501;82;20958;-80
2021/05/18 10:58:31;;;;;;;6.70;6.20;;;;;;;11.57;82.27;98026.80;2172379;82;20986;-80
2021/05/18 11:01:31;;;;;;;6.90;6.30;;;;;;;11.49;82.70;98017.26;2172593;82;21017;-81
2021/05/18 11:04:33;;;;;;;6.40;5.78;;;;;;;11.43;82.82;98025.56;2172542;82;20994;-82
2021/05/18 11:07:34;;;;;;;7.28;6.67;;;;;;;11.47;83.34;98023.38;2172551;82;20959;-80
2021/05/18 11:10:35;;;;;;;9.83;7.00;;;;;;;11.47;83.34;98025.98;2172560;82;20994;-80
2021/05/18 11:13:36;;;;;;;8.63;6.97;;;;;;;11.47;83.56;98023.38;2172263;82;20942;-82
2021/05/18 11:16:38;;;;;;;7.22;6.62;;;;;;;11.52;83.77;98028.14;2172604;82;21064;-81
2021/05/18 11:19:39;;;;;;;8.15;7.45;;;;;;;11.65;83.50;98031.11;2172321;82;20994;-80
2021/05/18 11:26:01;;;;;;;7.62;6.92;;;;;;;11.93;83.28;98033.16;2179713;82;20969;-81
2021/05/18 11:29:02;;;;;;;7.70;6.62;;;;;;;12.06;82.82;98028.28;2179742;82;20998;-81
2021/05/18 11:32:03;;;;;;;7.67;7.00;;;;;;;12.13;82.67;98034.33;2179827;82;20923;-80
2021/05/18 11:35:05;;;;;;;10.43;6.55;;;;;;;12.01;82.80;98035.28;2179452;82;20926;-81
2021/05/18 11:38:06;;;;;;;7.47;6.78;;;;;;;11.93;82.99;98035.77;2179831;82;21049;-81
2021/05/18 11:41:07;;;;;;;7.08;6.47;;;;;;;11.88;82.72;98040.61;2179837;82;21033;-81
2021/05/18 11:44:08;;;;;;;7.20;6.60;;;;;;;11.87;83.12;98035.81;2179692;82;20915;-83
2021/05/18 11:47:09;;;;;;;10.15;9.15;;;;;;;11.89;83.05;98029.27;2179816;82;21025;-81
2021/05/18 11:50:10;;;;;;;12.80;9.20;;;;;;;11.91;83.01;98037.53;2179953;82;21327;-81
2021/05/18 11:53:11;;;;;;;10.53;8.10;;;;;;;11.98;83.04;98041.84;2179839;82;21072;-79
2021/05/18 11:56:12;;;;;;;7.42;6.72;;;;;;;12.04;83.03;98047.03;2179817;82;21323;-82
2021/05/18 11:59:13;;;;;;;9.05;7.70;;;;;;;12.07;82.87;98040.48;2179604;82;21033;-82
2021/05/18 12:02:14;;;;;;;6.58;5.67;;;;;;;12.12;82.63;98043.92;2179737;82;21335;-81
2021/05/18 12:05:15;;;;;;;5.80;5.00;;;;;;;12.10;82.09;98045.69;2179637;82;20939;-82
2021/05/18 12:08:16;;;;;;;7.10;6.45;;;;;;;12.09;82.34;98053.10;2179774;82;20906;-81
2021/05/18 12:11:18;;;;;;;11.95;8.48;;;;;;;12.15;82.41;98045.69;2179789;82;21256;-82
2021/05/18 12:14:19;;;;;;;19.42;13.30;;;;;;;12.25;82.13;98050.41;2179964;82;21066;-81
2021/05/18 12:17:20;;;;;;;14.65;8.50;;;;;;;12.37;81.83;98049.01;2179843;82;21044;-81
2021/05/18 12:20:21;;;;;;;10.75;9.65;;;;;;;12.52;81.67;98050.19;2179442;81;21295;-81
2021/05/18 12:23:22;;;;;;;7.33;5.80;;;;;;;12.75;81.35;98049.54;2162527;82;21085;-82
2021/05/18 12:26:23;;;;;;;4.40;4.08;;;;;;;12.90;80.62;98049.83;2162179;82;20990;-82
2021/05/18 12:29:24;;;;;;;4.70;3.87;;;;;;;13.00;79.56;98051.91;2162310;82;21023;-81
2021/05/18 12:32:28;;;;;;;4.17;3.87;;;;;;;13.10;79.90;98045.73;2162325;82;20978;-81
2021/05/18 12:35:27;;;;;;;5.92;4.80;;;;;;;13.18;79.97;98051.78;2161899;82;20939;-82
2021/05/18 12:38:28;;;;;;;7.40;4.55;;;;;;;13.20;79.33;98052.63;2162042;82;20967;-80
2021/05/18 12:41:30;;;;;;;7.22;4.60;;;;;;;13.18;79.61;98057.02;2162414;82;20951;-82
2021/05/18 12:44:31;;;;;;;7.65;5.35;;;;;;;13.05;79.77;98061.94;2162196;82;21066;-81
2021/05/18 12:47:32;;;;;;;7.65;5.10;;;;;;;12.96;80.39;98061.56;2161947;82;21051;-80
2021/05/18 12:50:33;;;;;;;5.42;4.95;;;;;;;12.85;80.21;98075.20;2162348;82;21323;-80
2021/05/18 12:53:34;;;;;;;5.00;4.60;;;;;;;12.76;80.07;98065.67;2162170;82;21010;-81
2021/05/18 12:56:35;;;;;;;6.62;4.85;;;;;;;12.66;80.48;98070.57;2162498;82;20970;-81
2021/05/18 12:59:36;;;;;;;4.85;4.45;;;;;;;12.63;80.59;98069.73;2162174;82;21049;-81
2021/05/18 13:02:37;;;;;;;4.50;4.10;;;;;;;12.60;80.51;98075.00;2162585;82;20979;-81
2021/05/18 13:05:38;;;;;;;4.15;3.62;;;;;;;12.60;80.67;98083.72;2162577;82;21015;-81
2021/05/18 13:08:39;;;;;;;5.85;4.22;;;;;;;12.58;80.56;98085.48;2162572;82;20950;-81
2021/05/18 13:14:59;;;;;;;4.87;4.37;;;;;;;12.50;80.73;98083.36;2162393;82;21320;-81
2021/05/18 13:18:00;;;;;;;5.37;4.15;;;;;;;12.49;80.83;98082.94;2162076;82;21319;-81
2021/05/18 13:21:01;;;;;;;4.95;4.53;;;;;;;13.10;83.59;98088.95;2164205;81;21021;-82
2021/05/18 13:27:08;;;;;;;5.17;4.67;;;;;;;12.84;78.85;98100.09;2143169;82;21001;-80
2021/05/18 13:30:09;;;;;;;5.55;4.75;;;;;;;12.54;80.40;98099.47;2172150;82;20938;-81
2021/05/18 13:33:10;;;;;;;8.03;7.33;;;;;;;12.44;80.64;98095.19;2172349;82;21037;-81
2021/05/18 13:36:11;;;;;;;7.10;5.20;;;;;;;12.41;80.81;98097.83;2172405;82;20907;-81
2021/05/18 13:39:12;;;;;;;9.15;7.60;;;;;;;12.49;80.91;98086.86;2172844;82;20938;-81
2021/05/18 13:42:13;;;;;;;7.90;7.20;;;;;;;12.64;80.79;98104.20;2172853;82;20907;-81
2021/05/18 13:45:16;;;;;;;5.87;5.37;;;;;;;12.81;80.05;98093.13;2172568;81;20953;-81
2021/05/18 13:48:17;;;;;;;6.35;5.72;;;;;;;12.86;79.89;98099.64;2172467;82;21041;-81
2021/05/18 13:51:18;;;;;;;4.83;4.42;;;;;;;12.90;79.75;98104.84;2172363;82;20967;-82
2021/05/18 13:54:19;;;;;;;5.55;5.05;;;;;;;12.99;79.20;98102.57;2172410;82;21037;-80
2021/05/18 13:57:21;;;;;;;6.90;5.53;;;;;;;13.05;79.25;98101.23;2172372;82;20961;-79
2021/05/18 14:00:22;;;;;;;6.83;6.12;;;;;;;13.18;79.08;98093.71;2172467;82;21366;-81
2021/05/18 14:03:23;;;;;;;7.65;6.87;;;;;;;13.42;78.56;98095.64;2172903;82;20966;-81
2021/05/18 14:06:24;;;;;;;7.92;7.12;;;;;;;13.86;81.75;98086.77;2172295;82;21264;-80
2021/05/18 14:09:25;;;;;;;7.40;6.60;;;;;;;14.29;77.60;98088.37;2172047;82;20930;-82
2021/05/18 14:12:26;;;;;;;10.43;8.80;;;;;;;14.15;76.27;98086.41;2172767;82;20974;-80
2021/05/18 14:15:27;;;;;;;8.03;7.17;;;;;;;13.95;76.32;98081.88;2172415;82;20946;-81
2021/05/18 14:18:28;;;;;;;8.23;7.47;;;;;;;13.83;76.82;98078.95;2172896;82;20997;-83
2021/05/18 14:21:29;;;;;;;9.55;6.20;;;;;;;14.24;77.03;98088.89;2170347;81;21354;-80
2021/05/18 14:24:41;;;;;;;6.15;5.65;;;;;;;14.61;73.97;98080.47;2162165;82;21113;-80
2021/05/18 14:27:39;;;;;;;6.17;5.62;;;;;;;14.63;74.34;98078.24;2162196;82;21019;-83
2021/05/18 14:30:40;;;;;;;5.90;5.33;;;;;;;14.73;73.77;98085.52;2162665;82;21046;-80
2021/05/18 14:33:41;;;;;;;6.85;5.22;;;;;;;14.86;74.15;98084.45;2161976;82;20903;-80
2021/05/18 14:36:42;;;;;;;6.90;5.85;;;;;;;15.03;73.98;98078.90;2161987;82;21007;-81
2021/05/18 14:43:15;;;;;;;9.30;5.05;;;;;;;15.45;72.20;98084.24;2141651;82;21079;-80
2021/05/18 14:46:18;;;;;;;5.25;3.83;;;;;;;15.32;71.72;98081.44;2159994;82;21030;-80
2021/05/18 14:55:53;;;;;;;4.85;3.80;;;;;;;14.18;73.18;98092.05;2161927;82;20967;-78
2021/05/18 14:58:54;;;;;;;3.75;3.05;;;;;;;13.95;73.26;98091.06;2162078;82;21066;-79
2021/05/18 15:01:55;;;;;;;3.62;3.33;;;;;;;13.75;73.09;98088.67;2162045;82;20955;-79
2021/05/18 15:04:56;;;;;;;3.22;2.98;;;;;;;13.62;73.75;98086.64;2161873;82;20947;-79
2021/05/18 15:07:56;;;;;;;3.35;2.72;;;;;;;13.61;74.06;98103.71;2161812;82;20942;-79
2021/05/18 15:11:02;;;;;;;2.25;1.98;;;;;;;13.47;72.89;98105.63;2162095;82;21254;-79
2021/05/18 15:14:00;;;;;;;2.15;1.95;;;;;;;13.33;73.35;98104.47;2161734;82;20943;-79
2021/05/18 15:17:01;;;;;;;3.52;2.10;;;;;;;13.17;72.69;98092.41;2161793;82;21419;-79
2021/05/18 15:20:02;;;;;;;2.85;2.00;;;;;;;13.07;73.04;98100.34;2161655;82;21427;-79
2021/05/18 15:23:05;;;;;;;2.42;2.08;;;;;;;13.06;72.93;98101.22;2173182;81;21426;-79
2021/05/18 15:26:07;;;;;;;3.47;2.15;;;;;;;12.92;73.24;98104.82;2179263;82;21382;-79
2021/05/18 15:29:09;;;;;;;2.47;1.90;;;;;;;12.85;73.40;98108.38;2179437;82;21014;-81
2021/05/18 15:32:10;;;;;;;1.70;1.60;;;;;;;13.05;73.07;98113.02;2179688;82;21005;-79
2021/05/18 15:35:11;;;;;;;3.60;1.90;;;;;;;13.01;72.79;98113.94;2179335;82;20922;-79
2021/05/18 15:38:12;;;;;;;2.55;2.08;;;;;;;12.88;74.20;98115.77;2179186;82;20910;-79
2021/05/18 15:41:13;;;;;;;2.20;2.10;;;;;;;12.81;73.99;98106.23;2179351;82;21025;-78
2021/05/18 15:44:14;;;;;;;2.20;2.10;;;;;;;12.85;74.57;98108.38;2179934;82;21302;-79
2021/05/18 15:47:15;;;;;;;2.67;2.00;;;;;;;12.85;74.50;98106.62;2179876;82;20930;-79
2021/05/18 15:50:16;;;;;;;2.77;2.50;;;;;;;12.91;74.09;98100.47;2179577;82;21354;-78
2021/05/18 15:53:18;;;;;;;2.37;2.17;;;;;;;12.95;73.66;98104.35;2179444;82;21088;-80
2021/05/18 15:56:19;;;;;;;2.42;2.20;;;;;;;12.99;73.49;98106.06;2179735;82;21044;-79
2021/05/18 15:59:20;;;;;;;2.22;2.02;;;;;;;13.07;73.68;98108.64;2179386;82;21025;-78
2021/05/18 16:02:21;;;;;;;2.83;2.37;;;;;;;13.12;73.28;98116.45;2179774;82;21331;-79
2021/05/18 16:05:22;;;;;;;3.40;2.83;;;;;;;13.09;72.63;98118.66;2179927;82;21038;-79
2021/05/18 16:11:31;;;;;;;4.70;2.75;;;;;;;13.15;73.09;98126.46;2153327;82;20903;-79
2021/05/18 16:14:32;;;;;;;4.10;3.15;;;;;;;13.16;72.50;98127.33;2180866;82;21037;-80
2021/05/18 16:17:33;;;;;;;4.85;3.37;;;;;;;13.09;73.15;98117.35;2180806;82;21326;-81
2021/05/18 16:20:34;;;;;;;4.20;3.20;;;;;;;13.05;73.70;98114.34;2180394;82;21025;-79
2021/05/18 16:23:38;;;;;;;4.60;4.10;;;;;;;13.00;73.59;98113.48;2166389;81;21414;-79
2021/05/18 16:26:38;;;;;;;6.37;4.47;;;;;;;13.01;73.80;98117.42;2162028;82;20951;-79
2021/05/18 16:29:39;;;;;;;4.53;3.80;;;;;;;13.03;73.85;98110.86;2162738;82;20967;-79
2021/05/18 16:32:40;;;;;;;4.53;4.12;;;;;;;13.04;73.53;98113.91;2162351;82;20978;-78
2021/05/18 16:35:41;;;;;;;5.12;4.00;;;;;;;13.03;73.83;98113.48;2162525;82;20912;-79
2021/05/18 16:38:42;;;;;;;3.92;3.52;;;;;;;13.03;73.81;98125.27;2162925;82;21402;-78
2021/05/18 16:41:43;;;;;;;4.17;3.67;;;;;;;13.01;73.77;98126.59;2162373;82;21011;-79
2021/05/18 16:44:44;;;;;;;5.17;3.52;;;;;;;12.96;74.04;98130.11;2162355;82;21336;-79
2021/05/18 16:47:46;;;;;;;4.03;3.50;;;;;;;12.92;74.08;98132.33;2162011;82;20911;-80
2021/05/18 16:50:47;;;;;;;5.08;3.40;;;;;;;12.86;74.45;98133.69;2162223;82;21352;-79
2021/05/18 16:53:52;;;;;;;6.85;3.72;;;;;;;12.82;74.61;98134.59;2162084;82;21021;-80
2021/05/18 16:56:51;;;;;;;7.75;4.70;;;;;;;12.82;74.91;98136.77;2161924;82;21031;-80
2021/05/18 16:59:51;;;;;;;4.62;3.95;;;;;;;12.81;74.82;98138.09;2162075;82;21046;-81
2021/05/18 17:02:53;;;;;;;5.10;3.90;;;;;;;12.76;74.87;98148.17;2162215;82;20974;-80
2021/05/18 17:05:54;;;;;;;6.25;4.10;;;;;;;12.72;74.89;98154.75;2161602;82;20955;-80
2021/05/18 17:08:55;;;;;;;9.75;4.60;;;;;;;12.66;75.05;98156.11;2161095;82;21423;-79
2021/05/18 17:11:56;;;;;;;4.17;3.05;;;;;;;12.60;75.34;98157.02;2161318;82;20926;-80
2021/05/18 17:14:57;;;;;;;8.73;4.40;;;;;;;12.57;75.45;98162.72;2162178;82;21191;-80
2021/05/18 17:18:01;;;;;;;;;;;;;;;12.54;75.57;98156.20;2164427;82;21074;-80
2021/05/18 17:21:02;;;;;;;7.35;4.47;;;;;;;12.50;75.81;98153.17;2162328;81;20142;-79
2021/05/18 17:24:03;;;;;;;8.05;4.22;;;;;;;12.44;75.63;98156.26;2176492;81;21033;-79
2021/05/18 17:27:05;;;;;;;8.48;6.25;;;;;;;12.40;76.02;98156.29;2179491;82;21037;-79
2021/05/18 17:30:06;;;;;;;10.48;7.15;;;;;;;12.35;76.14;98151.52;2179587;82;20954;-80
2021/05/18 17:33:10;;;;;;;10.45;6.53;;;;;;;12.32;76.50;98155.47;2179635;82;21073;-80
2021/05/18 17:36:10;;;;;;;10.50;6.30;;;;;;;12.27;76.45;98154.19;2179411;82;21057;-80
2021/05/18 17:39:11;;;;;;;15.53;7.72;;;;;;;12.24;76.79;98155.95;2179613;82;20965;-79
2021/05/18 17:42:14;;;;;;;11.80;7.12;;;;;;;12.18;76.88;98152.94;2179475;82;21017;-79
2021/05/18 17:45:15;;;;;;;8.73;5.40;;;;;;;12.14;76.95;98156.44;2179284;82;20970;-77
2021/05/18 17:48:16;;;;;;;8.58;7.50;;;;;;;12.08;77.06;98160.37;2179368;82;20994;-79
2021/05/18 17:51:17;;;;;;;15.88;11.03;;;;;;;12.05;77.65;98168.23;2179521;82;21005;-79
2021/05/18 17:54:21;;;;;;;17.30;11.43;;;;;;;12.00;77.58;98165.64;2179252;82;21720;-79
2021/05/18 17:57:22;;;;;;;18.17;11.53;;;;;;;12.00;77.89;98172.61;2179658;81;20875;-80
2021/05/18 18:00:23;;;;;;;24.92;14.65;;;;;;;11.99;78.15;98173.05;2179906;82;21036;-79
2021/05/18 18:03:24;;;;;;;25.50;16.32;;;;;;;11.99;78.52;98170.44;2179653;81;20915;-80
2021/05/18 18:06:25;;;;;;;31.12;16.82;;;;;;;11.97;78.67;98170.02;2179799;82;20932;-79
2021/05/18 18:09:27;;;;;;;18.73;10.95;;;;;;;11.94;79.06;98176.12;2179556;81;21391;-80
2021/05/18 18:12:28;;;;;;;11.65;8.33;;;;;;;11.89;79.39;98181.81;2179572;81;20930;-80
2021/05/18 18:15:30;;;;;;;11.08;7.47;;;;;;;11.82;79.26;98186.63;2179899;82;20942;-80
2021/05/18 18:18:31;;;;;;;9.15;6.65;;;;;;;11.77;79.25;98196.20;2180049;82;21070;-80
2021/05/18 18:21:32;;;;;;;10.98;6.17;;;;;;;11.69;79.51;98199.28;2179415;82;20899;-81
2021/05/18 18:24:36;;;;;;;12.90;6.03;;;;;;;11.60;79.93;98202.80;2163847;82;21014;-78
2021/05/18 18:27:35;;;;;;;8.43;5.20;;;;;;;11.53;79.71;98202.37;2161974;82;20950;-79
2021/05/18 18:30:36;;;;;;;6.62;4.95;;;;;;;11.47;80.08;98211.09;2162097;82;20955;-80
2021/05/18 18:33:38;;;;;;;11.40;6.97;;;;;;;11.41;80.61;98212.41;2162229;82;20955;-80
2021/05/18 18:36:43;;;;;;;8.25;5.97;;;;;;;11.36;80.49;98219.83;2162016;82;20938;-80
2021/05/18 18:39:42;;;;;;;13.00;7.12;;;;;;;11.30;80.98;98228.55;2161469;82;21359;-78
2021/05/18 18:42:43;;;;;;;7.85;5.78;;;;;;;11.23;81.12;98228.52;2161586;82;20934;-79
2021/05/18 18:45:44;;;;;;;8.45;5.92;;;;;;;11.20;81.78;98230.69;2161895;82;20951;-79
2021/05/18 18:48:45;;;;;;;9.30;5.90;;;;;;;11.13;81.45;98226.34;2161858;82;20954;-80
2021/05/18 18:51:46;;;;;;;7.47;5.35;;;;;;;11.07;81.83;98227.21;2162242;82;21022;-80
2021/05/18 18:54:47;;;;;;;10.90;6.15;;;;;;;11.02;81.76;98228.95;2161820;82;21041;-81